Terminal Aerodrome Forecast
Issued by NWS

Home | Current Version | Previous Version | Text Only | Print | Product List | Glossary On
Versions: 1 2 3 4 5 6 7 8 9 10 11 12 13 14
251
FTUS43 KJKL 112322
TAFSME
TAF
KSME 112322Z 1200/1224 21007KT P6SM BKN250 WS020/22035KT
     FM120700 28009KT P6SM BKN070
     FM120900 28009KT 3SM -SNDZ BR SCT015 OVC025
     FM121100 30010G20KT 3SM -SHSN BR SCT008 OVC015
     FM121500 30010G21KT P6SM VCSH SCT015 OVC025
     FM121800 30012G20KT P6SM BKN035=

USA.gov is the U.S. government's official web portal to all federal, state and local government web resources and services.